sensor_id;sensor_type;location;lat;lon;timestamp;temperature;humidity
9107;DHT22;4589;48.690;8.952;2023-05-02T00:00:13;6.50;99.90
9107;DHT22;4589;48.690;8.952;2023-05-02T00:05:06;6.50;99.90
9107;DHT22;4589;48.690;8.952;2023-05-02T00:07:32;6.50;99.90
9107;DHT22;4589;48.690;8.952;2023-05-02T00:12:26;6.50;99.90
9107;DHT22;4589;48.690;8.952;2023-05-02T00:17:19;6.30;99.90
9107;DHT22;4589;48.690;8.952;2023-05-02T00:19:44;6.30;99.90
9107;DHT22;4589;48.690;8.952;2023-05-02T00:22:10;6.30;99.90
9107;DHT22;4589;48.690;8.952;2023-05-02T00:29:29;6.10;99.90
9107;DHT22;4589;48.690;8.952;2023-05-02T00:36:48;6.00;99.90
9107;DHT22;4589;48.690;8.952;2023-05-02T00:44:05;6.10;99.90
9107;DHT22;4589;48.690;8.952;2023-05-02T00:46:31;6.10;99.90
9107;DHT22;4589;48.690;8.952;2023-05-02T00:48:57;5.80;99.90
9107;DHT22;4589;48.690;8.952;2023-05-02T00:51:23;5.90;99.90
9107;DHT22;4589;48.690;8.952;2023-05-02T00:56:14;5.70;99.90
9107;DHT22;4589;48.690;8.952;2023-05-02T00:58:41;5.70;99.90
9107;DHT22;4589;48.690;8.952;2023-05-02T01:09:40;5.80;99.90
9107;DHT22;4589;48.690;8.952;2023-05-02T01:12:32;5.80;99.90
9107;DHT22;4589;48.690;8.952;2023-05-02T01:15:02;5.80;99.90
9107;DHT22;4589;48.690;8.952;2023-05-02T01:17:30;5.90;99.90
9107;DHT22;4589;48.690;8.952;2023-05-02T01:19:58;5.80;99.90
9107;DHT22;4589;48.690;8.952;2023-05-02T01:22:27;5.80;99.90
9107;DHT22;4589;48.690;8.952;2023-05-02T01:28:00;5.80;99.90
9107;DHT22;4589;48.690;8.952;2023-05-02T01:30:28;5.70;99.90
9107;DHT22;4589;48.690;8.952;2023-05-02T01:32:56;5.70;99.90
9107;DHT22;4589;48.690;8.952;2023-05-02T01:35:23;5.60;99.90
9107;DHT22;4589;48.690;8.952;2023-05-02T01:37:51;5.70;99.90
9107;DHT22;4589;48.690;8.952;2023-05-02T01:40:19;5.70;99.90
9107;DHT22;4589;48.690;8.952;2023-05-02T01:42:47;5.60;99.90
9107;DHT22;4589;48.690;8.952;2023-05-02T01:45:14;5.60;99.90
9107;DHT22;4589;48.690;8.952;2023-05-02T01:47:43;5.50;99.90
9107;DHT22;4589;48.690;8.952;2023-05-02T01:50:11;5.50;99.90
9107;DHT22;4589;48.690;8.952;2023-05-02T01:52:38;5.50;99.90
9107;DHT22;4589;48.690;8.952;2023-05-02T01:55:08;5.50;99.90
9107;DHT22;4589;48.690;8.952;2023-05-02T01:57:36;5.50;99.90
9107;DHT22;4589;48.690;8.952;2023-05-02T02:00:04;5.50;99.90
9107;DHT22;4589;48.690;8.952;2023-05-02T02:02:33;5.50;99.90
9107;DHT22;4589;48.690;8.952;2023-05-02T02:05:01;5.60;99.90
9107;DHT22;4589;48.690;8.952;2023-05-02T02:09:55;5.60;99.90
9107;DHT22;4589;48.690;8.952;2023-05-02T02:12:25;5.50;99.90
9107;DHT22;4589;48.690;8.952;2023-05-02T02:17:48;5.40;99.90
9107;DHT22;4589;48.690;8.952;2023-05-02T02:20:21;5.40;99.90
9107;DHT22;4589;48.690;8.952;2023-05-02T02:22:47;8.20;99.90
9107;DHT22;4589;48.690;8.952;2023-05-02T02:25:14;5.30;99.90
9107;DHT22;4589;48.690;8.952;2023-05-02T02:27:40;5.20;99.90
9107;DHT22;4589;48.690;8.952;2023-05-02T02:30:07;5.20;99.90
9107;DHT22;4589;48.690;8.952;2023-05-02T02:32:34;5.20;99.90
9107;DHT22;4589;48.690;8.952;2023-05-02T02:35:00;5.20;99.90
9107;DHT22;4589;48.690;8.952;2023-05-02T02:37:32;5.20;99.90
9107;DHT22;4589;48.690;8.952;2023-05-02T02:40:26;5.20;99.90
9107;DHT22;4589;48.690;8.952;2023-05-02T02:43:08;5.20;99.90
9107;DHT22;4589;48.690;8.952;2023-05-02T02:48:36;6.60;99.90
9107;DHT22;4589;48.690;8.952;2023-05-02T02:51:08;5.20;99.90
9107;DHT22;4589;48.690;8.952;2023-05-02T02:56:15;5.00;99.90
9107;DHT22;4589;48.690;8.952;2023-05-02T02:58:57;4.90;99.90
9107;DHT22;4589;48.690;8.952;2023-05-02T03:01:27;4.90;99.90
9107;DHT22;4589;48.690;8.952;2023-05-02T03:03:56;5.00;99.90
9107;DHT22;4589;48.690;8.952;2023-05-02T03:06:22;4.90;99.90
9107;DHT22;4589;48.690;8.952;2023-05-02T03:13:41;5.10;99.90
9107;DHT22;4589;48.690;8.952;2023-05-02T03:21:17;5.40;99.90
9107;DHT22;4589;48.690;8.952;2023-05-02T03:28:35;5.20;99.90
9107;DHT22;4589;48.690;8.952;2023-05-02T03:31:00;5.30;99.90
9107;DHT22;4589;48.690;8.952;2023-05-02T03:33:26;5.30;99.90
9107;DHT22;4589;48.690;8.952;2023-05-02T03:38:18;5.20;99.90
9107;DHT22;4589;48.690;8.952;2023-05-02T03:45:35;5.20;99.90
9107;DHT22;4589;48.690;8.952;2023-05-02T03:48:01;5.20;99.90
9107;DHT22;4589;48.690;8.952;2023-05-02T04:00:11;5.60;99.90
9107;DHT22;4589;48.690;8.952;2023-05-02T04:02:37;5.60;99.90
9107;DHT22;4589;48.690;8.952;2023-05-02T04:14:47;5.80;99.90
9107;DHT22;4589;48.690;8.952;2023-05-02T04:17:13;5.80;99.90
9107;DHT22;4589;48.690;8.952;2023-05-02T04:24:31;5.90;99.90
9107;DHT22;4589;48.690;8.952;2023-05-02T04:31:50;6.00;99.90
9107;DHT22;4589;48.690;8.952;2023-05-02T04:36:44;6.10;99.90
9107;DHT22;4589;48.690;8.952;2023-05-02T04:39:10;6.20;99.90
9107;DHT22;4589;48.690;8.952;2023-05-02T04:41:35;6.30;99.90
9107;DHT22;4589;48.690;8.952;2023-05-02T04:48:52;6.60;99.90
9107;DHT22;4589;48.690;8.952;2023-05-02T04:56:10;6.70;99.90
9107;DHT22;4589;48.690;8.952;2023-05-02T05:05:55;7.00;99.90
9107;DHT22;4589;48.690;8.952;2023-05-02T05:08:21;7.10;99.90
9107;DHT22;4589;48.690;8.952;2023-05-02T05:10:46;7.20;99.90
9107;DHT22;4589;48.690;8.952;2023-05-02T05:25:25;7.40;99.90
9107;DHT22;4589;48.690;8.952;2023-05-02T05:35:11;7.60;99.90
9107;DHT22;4589;48.690;8.952;2023-05-02T05:37:37;7.70;99.90
9107;DHT22;4589;48.690;8.952;2023-05-02T05:40:06;7.80;99.90
9107;DHT22;4589;48.690;8.952;2023-05-02T05:42:31;8.00;99.90
9107;DHT22;4589;48.690;8.952;2023-05-02T05:44:57;8.00;99.90
9107;DHT22;4589;48.690;8.952;2023-05-02T05:49:55;8.30;99.90
9107;DHT22;4589;48.690;8.952;2023-05-02T06:02:05;8.40;99.90
9107;DHT22;4589;48.690;8.952;2023-05-02T06:06:57;8.50;99.90
9107;DHT22;4589;48.690;8.952;2023-05-02T06:09:22;8.60;99.90
9107;DHT22;4589;48.690;8.952;2023-05-02T06:11:48;8.60;99.90
9107;DHT22;4589;48.690;8.952;2023-05-02T06:14:13;8.70;99.90
9107;DHT22;4589;48.690;8.952;2023-05-02T06:16:39;8.60;99.90
9107;DHT22;4589;48.690;8.952;2023-05-02T06:19:04;8.70;99.90
9107;DHT22;4589;48.690;8.952;2023-05-02T06:21:30;8.70;99.90
9107;DHT22;4589;48.690;8.952;2023-05-02T06:23:56;8.70;99.90
9107;DHT22;4589;48.690;8.952;2023-05-02T06:26:21;8.90;99.90
9107;DHT22;4589;48.690;8.952;2023-05-02T06:28:47;8.90;99.90
9107;DHT22;4589;48.690;8.952;2023-05-02T06:33:38;9.00;99.90
9107;DHT22;4589;48.690;8.952;2023-05-02T06:36:04;9.20;99.90
9107;DHT22;4589;48.690;8.952;2023-05-02T06:38:30;9.40;99.90
9107;DHT22;4589;48.690;8.952;2023-05-02T06:40:55;9.40;99.90
9107;DHT22;4589;48.690;8.952;2023-05-02T06:43:21;9.60;99.90
9107;DHT22;4589;48.690;8.952;2023-05-02T06:45:46;9.70;99.90
9107;DHT22;4589;48.690;8.952;2023-05-02T06:48:12;9.70;99.90
9107;DHT22;4589;48.690;8.952;2023-05-02T06:50:37;9.70;99.90
9107;DHT22;4589;48.690;8.952;2023-05-02T06:53:04;9.80;99.90
9107;DHT22;4589;48.690;8.952;2023-05-02T06:55:30;9.90;99.90
9107;DHT22;4589;48.690;8.952;2023-05-02T06:57:56;9.80;99.90
9107;DHT22;4589;48.690;8.952;2023-05-02T07:00:21;10.00;99.90
9107;DHT22;4589;48.690;8.952;2023-05-02T07:02:48;10.00;99.90
9107;DHT22;4589;48.690;8.952;2023-05-02T07:05:15;10.10;99.90
9107;DHT22;4589;48.690;8.952;2023-05-02T07:07:43;10.20;99.90
9107;DHT22;4589;48.690;8.952;2023-05-02T07:10:09;10.00;99.90
9107;DHT22;4589;48.690;8.952;2023-05-02T07:12:36;10.10;99.90
9107;DHT22;4589;48.690;8.952;2023-05-02T07:15:01;10.20;99.90
9107;DHT22;4589;48.690;8.952;2023-05-02T07:17:27;10.20;99.90
9107;DHT22;4589;48.690;8.952;2023-05-02T07:19:53;10.10;99.90
9107;DHT22;4589;48.690;8.952;2023-05-02T07:27:11;10.30;99.90
9107;DHT22;4589;48.690;8.952;2023-05-02T07:29:37;10.40;99.90
9107;DHT22;4589;48.690;8.952;2023-05-02T07:32:04;10.30;99.90
9107;DHT22;4589;48.690;8.952;2023-05-02T07:34:30;10.40;99.90
9107;DHT22;4589;48.690;8.952;2023-05-02T07:36:57;10.50;99.90
9107;DHT22;4589;48.690;8.952;2023-05-02T07:39:23;10.60;99.90
9107;DHT22;4589;48.690;8.952;2023-05-02T07:41:52;10.80;99.90
9107;DHT22;4589;48.690;8.952;2023-05-02T07:44:19;11.00;99.90
9107;DHT22;4589;48.690;8.952;2023-05-02T07:49:10;11.30;99.90
9107;DHT22;4589;48.690;8.952;2023-05-02T07:51:37;11.50;99.90
9107;DHT22;4589;48.690;8.952;2023-05-02T07:54:14;11.70;99.90
9107;DHT22;4589;48.690;8.952;2023-05-02T07:56:41;11.80;99.90
9107;DHT22;4589;48.690;8.952;2023-05-02T07:59:07;11.90;99.90
9107;DHT22;4589;48.690;8.952;2023-05-02T08:01:32;12.10;99.90
9107;DHT22;4589;48.690;8.952;2023-05-02T08:16:08;12.10;99.90
9107;DHT22;4589;48.690;8.952;2023-05-02T08:18:33;12.10;99.90
9107;DHT22;4589;48.690;8.952;2023-05-02T08:20:59;12.30;99.90
9107;DHT22;4589;48.690;8.952;2023-05-02T08:28:17;12.70;99.90
9107;DHT22;4589;48.690;8.952;2023-05-02T08:30:44;12.70;99.90
9107;DHT22;4589;48.690;8.952;2023-05-02T08:33:09;12.70;99.90
9107;DHT22;4589;48.690;8.952;2023-05-02T08:38:01;12.80;99.90
9107;DHT22;4589;48.690;8.952;2023-05-02T08:40:26;13.30;99.90
9107;DHT22;4589;48.690;8.952;2023-05-02T08:42:53;13.80;99.90
9107;DHT22;4589;48.690;8.952;2023-05-02T08:45:19;14.20;99.90
9107;DHT22;4589;48.690;8.952;2023-05-02T08:47:47;14.60;99.90
9107;DHT22;4589;48.690;8.952;2023-05-02T08:50:14;15.30;99.90
9107;DHT22;4589;48.690;8.952;2023-05-02T08:52:42;16.20;99.90
9107;DHT22;4589;48.690;8.952;2023-05-02T08:55:11;17.30;99.90
9107;DHT22;4589;48.690;8.952;2023-05-02T08:57:37;18.00;99.90
9107;DHT22;4589;48.690;8.952;2023-05-02T09:00:04;18.00;99.90
9107;DHT22;4589;48.690;8.952;2023-05-02T09:05:05;17.80;99.90
9107;DHT22;4589;48.690;8.952;2023-05-02T09:07:46;17.70;99.90
9107;DHT22;4589;48.690;8.952;2023-05-02T09:10:13;17.30;99.90
9107;DHT22;4589;48.690;8.952;2023-05-02T09:12:38;17.20;99.90
9107;DHT22;4589;48.690;8.952;2023-05-02T09:15:11;17.10;99.90
9107;DHT22;4589;48.690;8.952;2023-05-02T09:17:41;16.90;99.90
9107;DHT22;4589;48.690;8.952;2023-05-02T09:25:00;16.80;99.90
9107;DHT22;4589;48.690;8.952;2023-05-02T09:27:26;17.40;99.90
9107;DHT22;4589;48.690;8.952;2023-05-02T09:29:52;18.30;99.90
9107;DHT22;4589;48.690;8.952;2023-05-02T09:32:44;18.80;99.90
9107;DHT22;4589;48.690;8.952;2023-05-02T09:37:38;19.40;99.90
9107;DHT22;4589;48.690;8.952;2023-05-02T09:40:07;19.90;99.90
9107;DHT22;4589;48.690;8.952;2023-05-02T09:42:33;21.20;99.90
9107;DHT22;4589;48.690;8.952;2023-05-02T09:45:00;22.10;99.90
9107;DHT22;4589;48.690;8.952;2023-05-02T09:47:26;22.90;99.90
9107;DHT22;4589;48.690;8.952;2023-05-02T09:49:51;21.50;99.90
9107;DHT22;4589;48.690;8.952;2023-05-02T09:52:19;21.00;99.90
9107;DHT22;4589;48.690;8.952;2023-05-02T09:54:48;20.60;99.90
9107;DHT22;4589;48.690;8.952;2023-05-02T09:57:17;21.00;99.90
9107;DHT22;4589;48.690;8.952;2023-05-02T09:59:57;21.30;99.90
9107;DHT22;4589;48.690;8.952;2023-05-02T10:02:23;22.20;99.90
9107;DHT22;4589;48.690;8.952;2023-05-02T10:04:51;20.80;99.90
9107;DHT22;4589;48.690;8.952;2023-05-02T10:07:18;20.70;99.90
9107;DHT22;4589;48.690;8.952;2023-05-02T10:09:45;21.70;99.90
9107;DHT22;4589;48.690;8.952;2023-05-02T10:12:14;22.10;99.90
9107;DHT22;4589;48.690;8.952;2023-05-02T10:14:40;22.60;99.90
9107;DHT22;4589;48.690;8.952;2023-05-02T10:17:21;23.20;99.90
9107;DHT22;4589;48.690;8.952;2023-05-02T10:20:05;23.30;99.90
9107;DHT22;4589;48.690;8.952;2023-05-02T10:22:33;23.20;99.90
9107;DHT22;4589;48.690;8.952;2023-05-02T10:27:25;22.30;99.90
9107;DHT22;4589;48.690;8.952;2023-05-02T10:29:51;21.30;99.90
9107;DHT22;4589;48.690;8.952;2023-05-02T10:32:17;19.90;99.90
9107;DHT22;4589;48.690;8.952;2023-05-02T10:37:10;19.20;99.90
9107;DHT22;4589;48.690;8.952;2023-05-02T10:39:36;20.40;99.90
9107;DHT22;4589;48.690;8.952;2023-05-02T10:42:03;22.10;99.90
9107;DHT22;4589;48.690;8.952;2023-05-02T10:44:34;22.90;99.90
9107;DHT22;4589;48.690;8.952;2023-05-02T10:47:00;23.40;99.90
9107;DHT22;4589;48.690;8.952;2023-05-02T10:49:26;22.60;99.90
9107;DHT22;4589;48.690;8.952;2023-05-02T10:51:52;22.00;99.90
9107;DHT22;4589;48.690;8.952;2023-05-02T10:54:19;21.20;99.90
9107;DHT22;4589;48.690;8.952;2023-05-02T10:59:40;21.90;99.90
9107;DHT22;4589;48.690;8.952;2023-05-02T11:05:03;23.30;99.90
9107;DHT22;4589;48.690;8.952;2023-05-02T11:07:34;25.10;99.90
9107;DHT22;4589;48.690;8.952;2023-05-02T11:12:45;23.90;99.90
9107;DHT22;4589;48.690;8.952;2023-05-02T11:15:12;23.10;99.90
9107;DHT22;4589;48.690;8.952;2023-05-02T11:18:13;22.60;99.90
9107;DHT22;4589;48.690;8.952;2023-05-02T11:20:43;21.50;99.90
9107;DHT22;4589;48.690;8.952;2023-05-02T11:25:44;19.80;99.90
9107;DHT22;4589;48.690;8.952;2023-05-02T11:30:59;19.40;99.90
9107;DHT22;4589;48.690;8.952;2023-05-02T11:33:26;19.20;99.90
9107;DHT22;4589;48.690;8.952;2023-05-02T11:35:52;19.00;99.90
9107;DHT22;4589;48.690;8.952;2023-05-02T11:38:19;18.70;99.90
9107;DHT22;4589;48.690;8.952;2023-05-02T11:40:59;18.20;99.90
9107;DHT22;4589;48.690;8.952;2023-05-02T11:43:27;18.20;99.90
9107;DHT22;4589;48.690;8.952;2023-05-02T11:45:54;18.80;99.90
9107;DHT22;4589;48.690;8.952;2023-05-02T11:48:21;20.00;99.90
9107;DHT22;4589;48.690;8.952;2023-05-02T11:50:52;21.70;99.90
9107;DHT22;4589;48.690;8.952;2023-05-02T11:53:22;22.50;99.90
9107;DHT22;4589;48.690;8.952;2023-05-02T11:55:53;22.90;99.90
9107;DHT22;4589;48.690;8.952;2023-05-02T11:58:21;23.60;99.90
9107;DHT22;4589;48.690;8.952;2023-05-02T12:00:47;23.60;99.90
9107;DHT22;4589;48.690;8.952;2023-05-02T12:05:46;25.00;99.90
9107;DHT22;4589;48.690;8.952;2023-05-02T12:08:18;24.90;99.90
9107;DHT22;4589;48.690;8.952;2023-05-02T12:10:44;24.70;99.90
9107;DHT22;4589;48.690;8.952;2023-05-02T12:13:10;23.60;99.90
9107;DHT22;4589;48.690;8.952;2023-05-02T12:15:36;22.00;99.90
9107;DHT22;4589;48.690;8.952;2023-05-02T12:18:02;20.70;99.90
9107;DHT22;4589;48.690;8.952;2023-05-02T12:20:27;19.70;99.90
9107;DHT22;4589;48.690;8.952;2023-05-02T12:22:53;19.20;99.90
9107;DHT22;4589;48.690;8.952;2023-05-02T12:28:01;21.10;99.90
9107;DHT22;4589;48.690;8.952;2023-05-02T12:30:28;21.80;99.90
9107;DHT22;4589;48.690;8.952;2023-05-02T12:32:58;21.70;99.90
9107;DHT22;4589;48.690;8.952;2023-05-02T12:35:25;22.10;99.90
9107;DHT22;4589;48.690;8.952;2023-05-02T12:37:51;22.20;99.90
9107;DHT22;4589;48.690;8.952;2023-05-02T12:40:18;22.50;99.90
9107;DHT22;4589;48.690;8.952;2023-05-02T12:43:04;22.40;99.90
9107;DHT22;4589;48.690;8.952;2023-05-02T12:45:33;22.20;99.90
9107;DHT22;4589;48.690;8.952;2023-05-02T12:48:00;22.00;99.90
9107;DHT22;4589;48.690;8.952;2023-05-02T12:50:38;21.70;99.90
9107;DHT22;4589;48.690;8.952;2023-05-02T12:53:04;21.30;99.90
9107;DHT22;4589;48.690;8.952;2023-05-02T12:55:30;21.40;99.90
9107;DHT22;4589;48.690;8.952;2023-05-02T12:58:04;21.00;99.90
9107;DHT22;4589;48.690;8.952;2023-05-02T13:00:31;19.80;99.90
9107;DHT22;4589;48.690;8.952;2023-05-02T13:02:57;19.80;99.90
9107;DHT22;4589;48.690;8.952;2023-05-02T13:05:22;19.90;99.90
9107;DHT22;4589;48.690;8.952;2023-05-02T13:10:14;19.60;99.90
9107;DHT22;4589;48.690;8.952;2023-05-02T13:12:42;19.30;99.90
9107;DHT22;4589;48.690;8.952;2023-05-02T13:15:08;19.10;99.90
9107;DHT22;4589;48.690;8.952;2023-05-02T13:17:34;19.20;99.90
9107;DHT22;4589;48.690;8.952;2023-05-02T13:20:00;19.20;99.90
9107;DHT22;4589;48.690;8.952;2023-05-02T13:22:26;19.00;99.90
9107;DHT22;4589;48.690;8.952;2023-05-02T13:24:52;19.00;99.90
9107;DHT22;4589;48.690;8.952;2023-05-02T13:27:18;18.80;99.90
9107;DHT22;4589;48.690;8.952;2023-05-02T13:29:44;18.80;99.90
9107;DHT22;4589;48.690;8.952;2023-05-02T13:32:10;19.00;99.90
9107;DHT22;4589;48.690;8.952;2023-05-02T13:37:02;19.40;99.90
9107;DHT22;4589;48.690;8.952;2023-05-02T13:39:27;19.60;99.90
9107;DHT22;4589;48.690;8.952;2023-05-02T13:41:53;19.70;99.90
9107;DHT22;4589;48.690;8.952;2023-05-02T13:44:18;19.80;99.90
9107;DHT22;4589;48.690;8.952;2023-05-02T13:46:44;19.90;99.90
9107;DHT22;4589;48.690;8.952;2023-05-02T13:51:36;19.20;99.90
9107;DHT22;4589;48.690;8.952;2023-05-02T13:56:27;19.00;99.90
9107;DHT22;4589;48.690;8.952;2023-05-02T14:01:19;18.90;99.90
9107;DHT22;4589;48.690;8.952;2023-05-02T14:03:44;18.90;99.90
9107;DHT22;4589;48.690;8.952;2023-05-02T14:06:10;19.10;99.90
9107;DHT22;4589;48.690;8.952;2023-05-02T14:08:35;18.90;99.90
9107;DHT22;4589;48.690;8.952;2023-05-02T14:13:27;19.10;99.90
9107;DHT22;4589;48.690;8.952;2023-05-02T14:15:53;19.30;99.90
9107;DHT22;4589;48.690;8.952;2023-05-02T14:18:19;19.40;99.90
9107;DHT22;4589;48.690;8.952;2023-05-02T14:25:37;18.60;99.90
9107;DHT22;4589;48.690;8.952;2023-05-02T14:28:04;18.60;99.90
9107;DHT22;4589;48.690;8.952;2023-05-02T14:30:30;18.60;99.90
9107;DHT22;4589;48.690;8.952;2023-05-02T14:32:56;18.50;99.90
9107;DHT22;4589;48.690;8.952;2023-05-02T14:35:22;18.50;99.90
9107;DHT22;4589;48.690;8.952;2023-05-02T14:37:47;18.60;99.90
9107;DHT22;4589;48.690;8.952;2023-05-02T14:42:39;18.40;99.90
9107;DHT22;4589;48.690;8.952;2023-05-02T14:45:06;18.40;99.90
9107;DHT22;4589;48.690;8.952;2023-05-02T14:47:32;18.60;99.90
9107;DHT22;4589;48.690;8.952;2023-05-02T14:49:58;18.50;99.90
9107;DHT22;4589;48.690;8.952;2023-05-02T14:52:23;18.60;99.90
9107;DHT22;4589;48.690;8.952;2023-05-02T14:54:49;18.70;99.90
9107;DHT22;4589;48.690;8.952;2023-05-02T14:57:14;19.00;99.90
9107;DHT22;4589;48.690;8.952;2023-05-02T14:59:40;19.00;99.90
9107;DHT22;4589;48.690;8.952;2023-05-02T15:02:07;19.00;99.90
9107;DHT22;4589;48.690;8.952;2023-05-02T15:04:32;18.50;99.90
9107;DHT22;4589;48.690;8.952;2023-05-02T15:07:02;18.00;99.90
9107;DHT22;4589;48.690;8.952;2023-05-02T15:09:27;17.90;99.90
9107;DHT22;4589;48.690;8.952;2023-05-02T15:11:53;17.70;99.90
9107;DHT22;4589;48.690;8.952;2023-05-02T15:16:45;17.70;99.90
9107;DHT22;4589;48.690;8.952;2023-05-02T15:26:29;17.10;99.90
9107;DHT22;4589;48.690;8.952;2023-05-02T15:28:55;17.20;99.90
9107;DHT22;4589;48.690;8.952;2023-05-02T15:31:21;17.10;99.90
9107;DHT22;4589;48.690;8.952;2023-05-02T15:33:46;17.00;99.90
9107;DHT22;4589;48.690;8.952;2023-05-02T15:36:12;16.90;99.90
9107;DHT22;4589;48.690;8.952;2023-05-02T15:38:38;16.90;99.90
9107;DHT22;4589;48.690;8.952;2023-05-02T15:41:06;17.00;99.90
9107;DHT22;4589;48.690;8.952;2023-05-02T15:43:33;16.70;99.90
9107;DHT22;4589;48.690;8.952;2023-05-02T15:45:59;16.70;99.90
9107;DHT22;4589;48.690;8.952;2023-05-02T15:48:31;16.60;99.90
9107;DHT22;4589;48.690;8.952;2023-05-02T15:50:58;16.40;99.90
9107;DHT22;4589;48.690;8.952;2023-05-02T15:53:23;16.50;99.90
9107;DHT22;4589;48.690;8.952;2023-05-02T15:55:50;16.50;99.90
9107;DHT22;4589;48.690;8.952;2023-05-02T15:58:16;16.40;99.90
9107;DHT22;4589;48.690;8.952;2023-05-02T16:03:08;16.20;99.90
9107;DHT22;4589;48.690;8.952;2023-05-02T16:08:01;16.30;99.90
9107;DHT22;4589;48.690;8.952;2023-05-02T16:10:26;16.20;99.90
9107;DHT22;4589;48.690;8.952;2023-05-02T16:12:52;16.40;99.90
9107;DHT22;4589;48.690;8.952;2023-05-02T16:15:19;16.20;99.90
9107;DHT22;4589;48.690;8.952;2023-05-02T16:17:44;16.00;99.90
9107;DHT22;4589;48.690;8.952;2023-05-02T16:20:10;16.10;99.90
9107;DHT22;4589;48.690;8.952;2023-05-02T16:34:48;15.60;99.90
9107;DHT22;4589;48.690;8.952;2023-05-02T16:37:13;15.70;99.90
9107;DHT22;4589;48.690;8.952;2023-05-02T16:39:39;15.70;99.90
9107;DHT22;4589;48.690;8.952;2023-05-02T16:49:23;15.50;99.90
9107;DHT22;4589;48.690;8.952;2023-05-02T16:51:48;15.60;99.90
9107;DHT22;4589;48.690;8.952;2023-05-02T16:54:19;15.50;99.90
9107;DHT22;4589;48.690;8.952;2023-05-02T16:59:10;15.50;99.90
9107;DHT22;4589;48.690;8.952;2023-05-02T17:08:56;15.10;99.90
9107;DHT22;4589;48.690;8.952;2023-05-02T17:11:21;15.00;99.90
9107;DHT22;4589;48.690;8.952;2023-05-02T17:16:17;14.90;99.90
9107;DHT22;4589;48.690;8.952;2023-05-02T17:18:45;14.70;99.90
9107;DHT22;4589;48.690;8.952;2023-05-02T17:21:10;14.80;99.90
9107;DHT22;4589;48.690;8.952;2023-05-02T17:23:37;14.70;99.90
9107;DHT22;4589;48.690;8.952;2023-05-02T17:26:02;14.60;99.90
9107;DHT22;4589;48.690;8.952;2023-05-02T17:33:23;14.50;99.90
9107;DHT22;4589;48.690;8.952;2023-05-02T17:35:50;14.40;99.90
9107;DHT22;4589;48.690;8.952;2023-05-02T17:38:16;14.40;99.90
9107;DHT22;4589;48.690;8.952;2023-05-02T17:40:42;14.30;99.90
9107;DHT22;4589;48.690;8.952;2023-05-02T17:48:00;14.10;99.90
9107;DHT22;4589;48.690;8.952;2023-05-02T17:55:18;13.80;99.90
9107;DHT22;4589;48.690;8.952;2023-05-02T17:57:44;13.80;99.90
9107;DHT22;4589;48.690;8.952;2023-05-02T18:05:02;13.50;99.90
9107;DHT22;4589;48.690;8.952;2023-05-02T18:12:22;13.10;99.90
9107;DHT22;4589;48.690;8.952;2023-05-02T18:14:48;13.00;99.90
9107;DHT22;4589;48.690;8.952;2023-05-02T18:19:42;12.90;99.90
9107;DHT22;4589;48.690;8.952;2023-05-02T18:24:34;12.70;99.90
9107;DHT22;4589;48.690;8.952;2023-05-02T18:27:00;12.60;99.90
9107;DHT22;4589;48.690;8.952;2023-05-02T18:31:52;12.50;99.90
9107;DHT22;4589;48.690;8.952;2023-05-02T18:34:18;12.40;99.90
9107;DHT22;4589;48.690;8.952;2023-05-02T18:36:43;12.30;99.90
9107;DHT22;4589;48.690;8.952;2023-05-02T18:39:09;12.20;99.90
9107;DHT22;4589;48.690;8.952;2023-05-02T18:41:35;12.10;99.90
9107;DHT22;4589;48.690;8.952;2023-05-02T18:46:31;12.00;99.90
9107;DHT22;4589;48.690;8.952;2023-05-02T18:51:22;11.80;99.90
9107;DHT22;4589;48.690;8.952;2023-05-02T18:53:48;11.60;99.90
9107;DHT22;4589;48.690;8.952;2023-05-02T18:56:15;11.60;99.90
9107;DHT22;4589;48.690;8.952;2023-05-02T18:58:41;11.50;99.90
9107;DHT22;4589;48.690;8.952;2023-05-02T19:01:25;11.40;99.90
9107;DHT22;4589;48.690;8.952;2023-05-02T19:03:54;11.30;99.90
9107;DHT22;4589;48.690;8.952;2023-05-02T19:08:46;11.20;99.90
9107;DHT22;4589;48.690;8.952;2023-05-02T19:11:12;11.10;99.90
9107;DHT22;4589;48.690;8.952;2023-05-02T19:16:08;11.00;99.90
9107;DHT22;4589;48.690;8.952;2023-05-02T19:21:10;10.80;99.90
9107;DHT22;4589;48.690;8.952;2023-05-02T19:23:38;10.80;99.90
9107;DHT22;4589;48.690;8.952;2023-05-02T19:26:08;10.70;99.90
9107;DHT22;4589;48.690;8.952;2023-05-02T19:31:00;10.50;99.90
9107;DHT22;4589;48.690;8.952;2023-05-02T19:33:25;10.50;99.90
9107;DHT22;4589;48.690;8.952;2023-05-02T19:38:18;10.20;99.90
9107;DHT22;4589;48.690;8.952;2023-05-02T19:40:43;10.10;99.90
9107;DHT22;4589;48.690;8.952;2023-05-02T19:50:27;9.70;99.90
9107;DHT22;4589;48.690;8.952;2023-05-02T19:52:53;9.60;99.90
9107;DHT22;4589;48.690;8.952;2023-05-02T19:55:18;9.60;99.90
9107;DHT22;4589;48.690;8.952;2023-05-02T19:57:45;9.50;99.90
9107;DHT22;4589;48.690;8.952;2023-05-02T20:00:11;9.40;99.90
9107;DHT22;4589;48.690;8.952;2023-05-02T20:02:38;9.30;99.90
9107;DHT22;4589;48.690;8.952;2023-05-02T20:05:04;9.20;99.90
9107;DHT22;4589;48.690;8.952;2023-05-02T20:09:55;8.90;99.90
9107;DHT22;4589;48.690;8.952;2023-05-02T20:12:21;8.80;99.90
9107;DHT22;4589;48.690;8.952;2023-05-02T20:17:13;8.60;99.90
9107;DHT22;4589;48.690;8.952;2023-05-02T20:19:38;8.50;99.90
9107;DHT22;4589;48.690;8.952;2023-05-02T20:22:04;8.60;99.90
9107;DHT22;4589;48.690;8.952;2023-05-02T20:29:21;8.50;99.90
9107;DHT22;4589;48.690;8.952;2023-05-02T20:31:47;8.50;99.90
9107;DHT22;4589;48.690;8.952;2023-05-02T20:34:12;8.50;99.90
9107;DHT22;4589;48.690;8.952;2023-05-02T20:41:31;8.40;99.90
9107;DHT22;4589;48.690;8.952;2023-05-02T20:43:59;8.40;99.90
9107;DHT22;4589;48.690;8.952;2023-05-02T20:46:27;8.40;99.90
9107;DHT22;4589;48.690;8.952;2023-05-02T20:48:53;8.30;99.90
9107;DHT22;4589;48.690;8.952;2023-05-02T21:01:05;8.10;99.90
9107;DHT22;4589;48.690;8.952;2023-05-02T21:03:30;8.20;99.90
9107;DHT22;4589;48.690;8.952;2023-05-02T21:05:56;8.00;99.90
9107;DHT22;4589;48.690;8.952;2023-05-02T21:13:16;8.00;99.90
9107;DHT22;4589;48.690;8.952;2023-05-02T21:23:01;7.90;99.90
9107;DHT22;4589;48.690;8.952;2023-05-02T21:32:44;7.90;99.90
9107;DHT22;4589;48.690;8.952;2023-05-02T21:35:11;7.90;99.90
9107;DHT22;4589;48.690;8.952;2023-05-02T21:37:36;8.00;99.90
9107;DHT22;4589;48.690;8.952;2023-05-02T21:42:28;8.00;99.90
9107;DHT22;4589;48.690;8.952;2023-05-02T21:44:54;8.00;99.90
9107;DHT22;4589;48.690;8.952;2023-05-02T22:04:22;8.50;99.90
9107;DHT22;4589;48.690;8.952;2023-05-02T22:06:49;8.50;99.90
9107;DHT22;4589;48.690;8.952;2023-05-02T22:11:45;8.50;99.90
9107;DHT22;4589;48.690;8.952;2023-05-02T22:14:11;8.50;99.90
9107;DHT22;4589;48.690;8.952;2023-05-02T22:23:56;8.10;99.90
9107;DHT22;4589;48.690;8.952;2023-05-02T22:26:22;8.00;99.90
9107;DHT22;4589;48.690;8.952;2023-05-02T22:31:14;7.80;99.90
9107;DHT22;4589;48.690;8.952;2023-05-02T22:33:43;7.70;99.90
9107;DHT22;4589;48.690;8.952;2023-05-02T22:38:37;7.50;99.90
9107;DHT22;4589;48.690;8.952;2023-05-02T22:48:23;7.40;99.90
9107;DHT22;4589;48.690;8.952;2023-05-02T23:05:24;7.20;99.90
9107;DHT22;4589;48.690;8.952;2023-05-02T23:07:50;7.30;99.90
9107;DHT22;4589;48.690;8.952;2023-05-02T23:10:16;7.20;99.90
9107;DHT22;4589;48.690;8.952;2023-05-02T23:12:41;7.30;99.90
9107;DHT22;4589;48.690;8.952;2023-05-02T23:15:08;7.20;99.90
9107;DHT22;4589;48.690;8.952;2023-05-02T23:17:40;7.30;99.90
9107;DHT22;4589;48.690;8.952;2023-05-02T23:20:08;7.30;99.90
9107;DHT22;4589;48.690;8.952;2023-05-02T23:22:35;7.30;99.90
9107;DHT22;4589;48.690;8.952;2023-05-02T23:25:01;7.30;99.90